Login to view Products
 
Friday, May 07, 2021 (18:31 UTC) 18
Abu Dhabi International Airport
Last Updated: 07-May-2021 (18:30Z)
Wind Dir/Speed: NNE at 06 kt
Temperature: 28.4°C
Rel. Humidity: 79 %
Pressure: 1009.5 hPa
Visibility: 10000 m
ACTUALS:
  • METAR OMAA 071800Z 01007KT CAVOK 29/25 Q1009 NOSIG
  • TAF OMAA 071700Z 0718/0900 05005KT 8000 NSC PROB30 0800/0804 4000 HZ BECMG 0807/0809 32015KT PROB30 TEMPO 0810/0813 32022KT 3000 BLDU BECMG 0817/0819 08005KT=

2